sensor_id;sensor_type;location;lat;lon;timestamp;temperature;humidity
14061;DHT22;7105;43.616;1.434;2023-09-19T00:02:17;19.20;99.90
14061;DHT22;7105;43.616;1.434;2023-09-19T00:04:43;19.20;99.90
14061;DHT22;7105;43.616;1.434;2023-09-19T00:07:10;19.00;99.90
14061;DHT22;7105;43.616;1.434;2023-09-19T00:09:35;19.10;99.90
14061;DHT22;7105;43.616;1.434;2023-09-19T00:12:06;19.10;99.90
14061;DHT22;7105;43.616;1.434;2023-09-19T00:14:32;19.10;99.90
14061;DHT22;7105;43.616;1.434;2023-09-19T00:17:01;19.10;99.90
14061;DHT22;7105;43.616;1.434;2023-09-19T00:19:33;19.10;99.90
14061;DHT22;7105;43.616;1.434;2023-09-19T00:21:59;19.10;99.90
14061;DHT22;7105;43.616;1.434;2023-09-19T00:24:24;19.00;99.90
14061;DHT22;7105;43.616;1.434;2023-09-19T00:26:50;19.10;99.90
14061;DHT22;7105;43.616;1.434;2023-09-19T00:29:16;19.10;99.90
14061;DHT22;7105;43.616;1.434;2023-09-19T00:31:44;19.10;99.90
14061;DHT22;7105;43.616;1.434;2023-09-19T00:34:10;19.10;99.90
14061;DHT22;7105;43.616;1.434;2023-09-19T00:36:40;19.00;99.90
14061;DHT22;7105;43.616;1.434;2023-09-19T00:39:06;19.00;99.90
14061;DHT22;7105;43.616;1.434;2023-09-19T00:41:32;19.00;99.90
14061;DHT22;7105;43.616;1.434;2023-09-19T00:44:00;19.00;99.90
14061;DHT22;7105;43.616;1.434;2023-09-19T00:46:27;19.00;99.90
14061;DHT22;7105;43.616;1.434;2023-09-19T00:48:52;19.00;99.90
14061;DHT22;7105;43.616;1.434;2023-09-19T00:51:20;19.00;99.90
14061;DHT22;7105;43.616;1.434;2023-09-19T00:53:47;19.00;99.90
14061;DHT22;7105;43.616;1.434;2023-09-19T00:56:15;19.10;99.90
14061;DHT22;7105;43.616;1.434;2023-09-19T00:58:44;19.10;99.90
14061;DHT22;7105;43.616;1.434;2023-09-19T01:01:12;19.10;99.90
14061;DHT22;7105;43.616;1.434;2023-09-19T01:03:40;19.00;99.90
14061;DHT22;7105;43.616;1.434;2023-09-19T01:06:07;19.00;99.90
14061;DHT22;7105;43.616;1.434;2023-09-19T01:08:34;18.90;99.90
14061;DHT22;7105;43.616;1.434;2023-09-19T01:11:20;18.80;99.90
14061;DHT22;7105;43.616;1.434;2023-09-19T01:16:53;19.00;99.90
14061;DHT22;7105;43.616;1.434;2023-09-19T01:19:41;19.10;99.90
14061;DHT22;7105;43.616;1.434;2023-09-19T01:22:37;19.10;99.90
14061;DHT22;7105;43.616;1.434;2023-09-19T01:30:27;18.90;99.90
14061;DHT22;7105;43.616;1.434;2023-09-19T01:32:59;18.80;99.90
14061;DHT22;7105;43.616;1.434;2023-09-19T01:35:25;18.80;99.90
14061;DHT22;7105;43.616;1.434;2023-09-19T01:37:50;18.90;99.90
14061;DHT22;7105;43.616;1.434;2023-09-19T01:40:18;18.80;99.90
14061;DHT22;7105;43.616;1.434;2023-09-19T01:45:52;18.70;99.90
14061;DHT22;7105;43.616;1.434;2023-09-19T01:51:25;18.70;99.90
14061;DHT22;7105;43.616;1.434;2023-09-19T01:54:08;18.70;99.90
14061;DHT22;7105;43.616;1.434;2023-09-19T01:56:42;18.70;99.90
14061;DHT22;7105;43.616;1.434;2023-09-19T01:59:14;18.70;99.90
14061;DHT22;7105;43.616;1.434;2023-09-19T02:01:42;18.70;99.90
14061;DHT22;7105;43.616;1.434;2023-09-19T02:04:10;18.70;99.90
14061;DHT22;7105;43.616;1.434;2023-09-19T02:06:40;18.70;99.90
14061;DHT22;7105;43.616;1.434;2023-09-19T02:09:06;18.70;99.90
14061;DHT22;7105;43.616;1.434;2023-09-19T02:11:32;18.70;99.90
14061;DHT22;7105;43.616;1.434;2023-09-19T02:13:58;18.70;99.90
14061;DHT22;7105;43.616;1.434;2023-09-19T02:16:25;18.60;99.90
14061;DHT22;7105;43.616;1.434;2023-09-19T02:18:50;18.50;99.90
14061;DHT22;7105;43.616;1.434;2023-09-19T02:21:17;18.60;99.90
14061;DHT22;7105;43.616;1.434;2023-09-19T02:23:44;18.60;99.90
14061;DHT22;7105;43.616;1.434;2023-09-19T02:26:09;18.50;99.90
14061;DHT22;7105;43.616;1.434;2023-09-19T02:28:37;18.50;99.90
14061;DHT22;7105;43.616;1.434;2023-09-19T02:31:03;18.60;99.90
14061;DHT22;7105;43.616;1.434;2023-09-19T02:33:31;18.50;99.90
14061;DHT22;7105;43.616;1.434;2023-09-19T02:35:58;18.40;99.90
14061;DHT22;7105;43.616;1.434;2023-09-19T02:38:25;18.40;99.90
14061;DHT22;7105;43.616;1.434;2023-09-19T02:40:52;18.40;99.90
14061;DHT22;7105;43.616;1.434;2023-09-19T02:43:18;18.50;99.90
14061;DHT22;7105;43.616;1.434;2023-09-19T02:45:45;18.60;99.90
14061;DHT22;7105;43.616;1.434;2023-09-19T02:48:12;18.50;99.90
14061;DHT22;7105;43.616;1.434;2023-09-19T02:50:38;18.40;99.90
14061;DHT22;7105;43.616;1.434;2023-09-19T02:53:05;18.30;99.90
14061;DHT22;7105;43.616;1.434;2023-09-19T02:55:32;18.30;99.90
14061;DHT22;7105;43.616;1.434;2023-09-19T02:57:58;18.40;99.90
14061;DHT22;7105;43.616;1.434;2023-09-19T03:00:24;18.30;99.90
14061;DHT22;7105;43.616;1.434;2023-09-19T03:02:56;18.40;99.90
14061;DHT22;7105;43.616;1.434;2023-09-19T03:05:22;18.40;99.90
14061;DHT22;7105;43.616;1.434;2023-09-19T03:07:49;18.30;99.90
14061;DHT22;7105;43.616;1.434;2023-09-19T03:10:21;18.30;99.90
14061;DHT22;7105;43.616;1.434;2023-09-19T03:12:47;18.30;99.90
14061;DHT22;7105;43.616;1.434;2023-09-19T03:15:14;18.20;99.90
14061;DHT22;7105;43.616;1.434;2023-09-19T03:17:44;18.20;99.90
14061;DHT22;7105;43.616;1.434;2023-09-19T03:20:10;18.20;99.90
14061;DHT22;7105;43.616;1.434;2023-09-19T03:22:38;18.30;99.90
14061;DHT22;7105;43.616;1.434;2023-09-19T03:25:06;18.10;99.90
14061;DHT22;7105;43.616;1.434;2023-09-19T03:27:37;18.20;99.90
14061;DHT22;7105;43.616;1.434;2023-09-19T03:30:04;18.20;99.90
14061;DHT22;7105;43.616;1.434;2023-09-19T03:32:37;18.10;99.90
14061;DHT22;7105;43.616;1.434;2023-09-19T03:35:04;18.10;99.90
14061;DHT22;7105;43.616;1.434;2023-09-19T03:37:33;18.10;99.90
14061;DHT22;7105;43.616;1.434;2023-09-19T03:39:59;18.10;99.90
14061;DHT22;7105;43.616;1.434;2023-09-19T03:42:25;18.10;99.90
14061;DHT22;7105;43.616;1.434;2023-09-19T03:44:52;18.10;99.90
14061;DHT22;7105;43.616;1.434;2023-09-19T03:47:18;18.10;99.90
14061;DHT22;7105;43.616;1.434;2023-09-19T03:49:46;18.00;99.90
14061;DHT22;7105;43.616;1.434;2023-09-19T03:52:12;18.00;99.90
14061;DHT22;7105;43.616;1.434;2023-09-19T03:54:38;18.00;99.90
14061;DHT22;7105;43.616;1.434;2023-09-19T03:57:05;18.00;99.90
14061;DHT22;7105;43.616;1.434;2023-09-19T03:59:31;17.90;99.90
14061;DHT22;7105;43.616;1.434;2023-09-19T04:01:57;17.90;99.90
14061;DHT22;7105;43.616;1.434;2023-09-19T04:04:23;17.90;99.90
14061;DHT22;7105;43.616;1.434;2023-09-19T04:06:51;17.80;99.90
14061;DHT22;7105;43.616;1.434;2023-09-19T04:09:16;17.90;99.90
14061;DHT22;7105;43.616;1.434;2023-09-19T04:11:42;17.90;99.90
14061;DHT22;7105;43.616;1.434;2023-09-19T04:14:08;17.90;99.90
14061;DHT22;7105;43.616;1.434;2023-09-19T04:16:33;17.90;99.90
14061;DHT22;7105;43.616;1.434;2023-09-19T04:18:59;17.90;99.90
14061;DHT22;7105;43.616;1.434;2023-09-19T04:21:25;17.90;99.90
14061;DHT22;7105;43.616;1.434;2023-09-19T04:23:52;17.90;99.90
14061;DHT22;7105;43.616;1.434;2023-09-19T04:26:17;17.90;99.90
14061;DHT22;7105;43.616;1.434;2023-09-19T04:28:43;18.00;99.90
14061;DHT22;7105;43.616;1.434;2023-09-19T04:31:09;17.90;99.90
14061;DHT22;7105;43.616;1.434;2023-09-19T04:33:37;17.90;99.90
14061;DHT22;7105;43.616;1.434;2023-09-19T04:36:03;17.80;99.90
14061;DHT22;7105;43.616;1.434;2023-09-19T04:38:30;17.80;99.90
14061;DHT22;7105;43.616;1.434;2023-09-19T04:40:59;17.80;99.90
14061;DHT22;7105;43.616;1.434;2023-09-19T04:43:25;17.80;99.90
14061;DHT22;7105;43.616;1.434;2023-09-19T04:45:52;17.80;99.90
14061;DHT22;7105;43.616;1.434;2023-09-19T04:48:22;17.80;99.90
14061;DHT22;7105;43.616;1.434;2023-09-19T04:50:49;17.70;99.90
14061;DHT22;7105;43.616;1.434;2023-09-19T04:53:16;17.80;99.90
14061;DHT22;7105;43.616;1.434;2023-09-19T04:55:43;17.70;99.90
14061;DHT22;7105;43.616;1.434;2023-09-19T04:58:08;17.70;99.90
14061;DHT22;7105;43.616;1.434;2023-09-19T05:00:34;17.70;99.90
14061;DHT22;7105;43.616;1.434;2023-09-19T05:03:00;17.70;99.90
14061;DHT22;7105;43.616;1.434;2023-09-19T05:05:26;17.70;99.90
14061;DHT22;7105;43.616;1.434;2023-09-19T05:07:52;17.70;99.90
14061;DHT22;7105;43.616;1.434;2023-09-19T05:10:21;17.70;99.90
14061;DHT22;7105;43.616;1.434;2023-09-19T05:12:47;17.70;99.90
14061;DHT22;7105;43.616;1.434;2023-09-19T05:15:14;17.70;99.90
14061;DHT22;7105;43.616;1.434;2023-09-19T05:17:48;17.70;99.90
14061;DHT22;7105;43.616;1.434;2023-09-19T05:20:14;17.70;99.90
14061;DHT22;7105;43.616;1.434;2023-09-19T05:22:43;17.60;99.90
14061;DHT22;7105;43.616;1.434;2023-09-19T05:25:12;17.60;99.90
14061;DHT22;7105;43.616;1.434;2023-09-19T05:27:43;17.70;99.90
14061;DHT22;7105;43.616;1.434;2023-09-19T05:30:09;17.70;99.90
14061;DHT22;7105;43.616;1.434;2023-09-19T05:32:35;17.70;99.90
14061;DHT22;7105;43.616;1.434;2023-09-19T05:35:01;17.70;99.90
14061;DHT22;7105;43.616;1.434;2023-09-19T05:37:26;17.70;99.90
14061;DHT22;7105;43.616;1.434;2023-09-19T05:39:52;17.70;99.90
14061;DHT22;7105;43.616;1.434;2023-09-19T05:42:19;17.70;99.90
14061;DHT22;7105;43.616;1.434;2023-09-19T05:44:45;17.70;99.90
14061;DHT22;7105;43.616;1.434;2023-09-19T05:47:10;17.70;99.90
14061;DHT22;7105;43.616;1.434;2023-09-19T05:49:36;17.70;99.90
14061;DHT22;7105;43.616;1.434;2023-09-19T05:52:06;17.80;99.90
14061;DHT22;7105;43.616;1.434;2023-09-19T05:54:32;17.90;99.90
14061;DHT22;7105;43.616;1.434;2023-09-19T05:57:00;17.90;99.90
14061;DHT22;7105;43.616;1.434;2023-09-19T05:59:25;17.90;99.90
14061;DHT22;7105;43.616;1.434;2023-09-19T06:01:51;17.80;99.90
14061;DHT22;7105;43.616;1.434;2023-09-19T06:04:17;17.90;99.90
14061;DHT22;7105;43.616;1.434;2023-09-19T06:06:44;17.90;99.90
14061;DHT22;7105;43.616;1.434;2023-09-19T06:09:10;18.00;99.90
14061;DHT22;7105;43.616;1.434;2023-09-19T06:11:36;18.00;99.90
14061;DHT22;7105;43.616;1.434;2023-09-19T06:14:03;18.00;99.90
14061;DHT22;7105;43.616;1.434;2023-09-19T06:16:29;18.00;99.90
14061;DHT22;7105;43.616;1.434;2023-09-19T06:18:57;18.00;99.90
14061;DHT22;7105;43.616;1.434;2023-09-19T06:21:25;18.00;99.90
14061;DHT22;7105;43.616;1.434;2023-09-19T06:23:52;18.00;99.90
14061;DHT22;7105;43.616;1.434;2023-09-19T06:26:18;18.10;99.90
14061;DHT22;7105;43.616;1.434;2023-09-19T06:28:44;18.20;99.90
14061;DHT22;7105;43.616;1.434;2023-09-19T06:31:10;18.20;99.90
14061;DHT22;7105;43.616;1.434;2023-09-19T06:33:36;18.30;99.90
14061;DHT22;7105;43.616;1.434;2023-09-19T06:36:06;18.40;99.90
14061;DHT22;7105;43.616;1.434;2023-09-19T06:38:32;18.50;99.90
14061;DHT22;7105;43.616;1.434;2023-09-19T06:41:00;18.60;99.90
14061;DHT22;7105;43.616;1.434;2023-09-19T06:43:27;18.40;99.90
14061;DHT22;7105;43.616;1.434;2023-09-19T06:45:54;18.50;99.90
14061;DHT22;7105;43.616;1.434;2023-09-19T06:48:20;18.40;99.90
14061;DHT22;7105;43.616;1.434;2023-09-19T06:50:46;18.40;99.90
14061;DHT22;7105;43.616;1.434;2023-09-19T06:53:13;18.40;99.90
14061;DHT22;7105;43.616;1.434;2023-09-19T06:55:39;18.60;99.90
14061;DHT22;7105;43.616;1.434;2023-09-19T06:58:05;18.70;99.90
14061;DHT22;7105;43.616;1.434;2023-09-19T07:00:31;18.80;99.90
14061;DHT22;7105;43.616;1.434;2023-09-19T07:03:03;18.70;99.90
14061;DHT22;7105;43.616;1.434;2023-09-19T07:05:37;18.80;99.90
14061;DHT22;7105;43.616;1.434;2023-09-19T07:08:05;19.10;99.90
14061;DHT22;7105;43.616;1.434;2023-09-19T07:10:35;19.30;99.90
14061;DHT22;7105;43.616;1.434;2023-09-19T07:13:01;19.50;99.90
14061;DHT22;7105;43.616;1.434;2023-09-19T07:15:27;19.70;99.90
14061;DHT22;7105;43.616;1.434;2023-09-19T07:17:54;20.00;99.90
14061;DHT22;7105;43.616;1.434;2023-09-19T07:20:22;20.00;99.90
14061;DHT22;7105;43.616;1.434;2023-09-19T07:22:49;22.40;99.90
14061;DHT22;7105;43.616;1.434;2023-09-19T07:25:16;26.50;99.90
14061;DHT22;7105;43.616;1.434;2023-09-19T07:27:42;28.10;99.90
14061;DHT22;7105;43.616;1.434;2023-09-19T07:30:09;28.00;99.90
14061;DHT22;7105;43.616;1.434;2023-09-19T07:32:35;29.20;99.90
14061;DHT22;7105;43.616;1.434;2023-09-19T07:35:04;28.70;99.90
14061;DHT22;7105;43.616;1.434;2023-09-19T07:37:34;30.30;99.90
14061;DHT22;7105;43.616;1.434;2023-09-19T07:40:00;29.30;99.90
14061;DHT22;7105;43.616;1.434;2023-09-19T07:42:51;28.70;99.90
14061;DHT22;7105;43.616;1.434;2023-09-19T07:45:17;31.20;99.90
14061;DHT22;7105;43.616;1.434;2023-09-19T07:47:47;32.70;99.90
14061;DHT22;7105;43.616;1.434;2023-09-19T07:50:19;28.60;99.90
14061;DHT22;7105;43.616;1.434;2023-09-19T07:52:48;30.30;99.90
14061;DHT22;7105;43.616;1.434;2023-09-19T07:55:16;30.20;99.90
14061;DHT22;7105;43.616;1.434;2023-09-19T07:57:45;30.40;99.90
14061;DHT22;7105;43.616;1.434;2023-09-19T08:00:12;30.90;99.90
14061;DHT22;7105;43.616;1.434;2023-09-19T08:02:39;32.10;99.90
14061;DHT22;7105;43.616;1.434;2023-09-19T08:05:12;30.90;99.90
14061;DHT22;7105;43.616;1.434;2023-09-19T08:07:42;29.90;99.90
14061;DHT22;7105;43.616;1.434;2023-09-19T08:10:09;29.90;99.90
14061;DHT22;7105;43.616;1.434;2023-09-19T08:12:39;30.70;99.90
14061;DHT22;7105;43.616;1.434;2023-09-19T08:15:18;32.60;99.90
14061;DHT22;7105;43.616;1.434;2023-09-19T08:17:45;32.00;99.90
14061;DHT22;7105;43.616;1.434;2023-09-19T08:20:12;33.00;99.90
14061;DHT22;7105;43.616;1.434;2023-09-19T08:22:51;30.60;99.90
14061;DHT22;7105;43.616;1.434;2023-09-19T08:25:20;31.00;99.90
14061;DHT22;7105;43.616;1.434;2023-09-19T08:27:47;31.00;99.90
14061;DHT22;7105;43.616;1.434;2023-09-19T08:30:19;27.00;99.90
14061;DHT22;7105;43.616;1.434;2023-09-19T08:32:49;24.70;99.90
14061;DHT22;7105;43.616;1.434;2023-09-19T08:35:15;25.40;99.90
14061;DHT22;7105;43.616;1.434;2023-09-19T08:37:42;24.90;99.90
14061;DHT22;7105;43.616;1.434;2023-09-19T08:40:08;24.10;99.90
14061;DHT22;7105;43.616;1.434;2023-09-19T08:42:54;23.70;99.90
14061;DHT22;7105;43.616;1.434;2023-09-19T08:45:21;24.20;99.90
14061;DHT22;7105;43.616;1.434;2023-09-19T08:50:28;32.90;99.90
14061;DHT22;7105;43.616;1.434;2023-09-19T08:52:56;32.80;99.90
14061;DHT22;7105;43.616;1.434;2023-09-19T08:55:27;34.40;99.90
14061;DHT22;7105;43.616;1.434;2023-09-19T08:58:02;37.10;99.90
14061;DHT22;7105;43.616;1.434;2023-09-19T09:00:29;34.80;99.90
14061;DHT22;7105;43.616;1.434;2023-09-19T09:02:57;32.40;99.90
14061;DHT22;7105;43.616;1.434;2023-09-19T09:05:24;27.10;99.90
14061;DHT22;7105;43.616;1.434;2023-09-19T09:07:52;24.80;99.90
14061;DHT22;7105;43.616;1.434;2023-09-19T09:10:20;23.80;99.90
14061;DHT22;7105;43.616;1.434;2023-09-19T09:12:52;23.30;99.90
14061;DHT22;7105;43.616;1.434;2023-09-19T09:15:22;23.20;99.90
14061;DHT22;7105;43.616;1.434;2023-09-19T09:17:49;23.00;99.90
14061;DHT22;7105;43.616;1.434;2023-09-19T09:20:19;22.90;99.90
14061;DHT22;7105;43.616;1.434;2023-09-19T09:22:52;22.90;99.90
14061;DHT22;7105;43.616;1.434;2023-09-19T09:25:19;22.50;99.90
14061;DHT22;7105;43.616;1.434;2023-09-19T09:27:58;22.60;99.90
14061;DHT22;7105;43.616;1.434;2023-09-19T09:30:37;22.30;99.90
14061;DHT22;7105;43.616;1.434;2023-09-19T09:33:11;23.00;99.90
14061;DHT22;7105;43.616;1.434;2023-09-19T09:35:46;23.50;99.90
14061;DHT22;7105;43.616;1.434;2023-09-19T09:38:12;23.50;99.90
14061;DHT22;7105;43.616;1.434;2023-09-19T09:40:49;23.90;99.90
14061;DHT22;7105;43.616;1.434;2023-09-19T09:46:14;24.60;99.90
14061;DHT22;7105;43.616;1.434;2023-09-19T09:48:58;24.20;99.90
14061;DHT22;7105;43.616;1.434;2023-09-19T09:51:49;24.00;99.90
14061;DHT22;7105;43.616;1.434;2023-09-19T09:54:29;23.90;99.90
14061;DHT22;7105;43.616;1.434;2023-09-19T09:57:08;24.00;99.90
14061;DHT22;7105;43.616;1.434;2023-09-19T09:59:53;24.10;99.90
14061;DHT22;7105;43.616;1.434;2023-09-19T10:02:28;24.10;99.90
14061;DHT22;7105;43.616;1.434;2023-09-19T10:04:58;24.30;99.90
14061;DHT22;7105;43.616;1.434;2023-09-19T10:07:31;24.20;99.90
14061;DHT22;7105;43.616;1.434;2023-09-19T10:10:04;24.30;99.90
14061;DHT22;7105;43.616;1.434;2023-09-19T10:12:44;24.40;99.90
14061;DHT22;7105;43.616;1.434;2023-09-19T10:15:18;24.20;99.90
14061;DHT22;7105;43.616;1.434;2023-09-19T10:17:47;24.50;99.90
14061;DHT22;7105;43.616;1.434;2023-09-19T10:20:17;24.30;99.90
14061;DHT22;7105;43.616;1.434;2023-09-19T10:22:59;24.00;99.90
14061;DHT22;7105;43.616;1.434;2023-09-19T10:25:26;23.30;99.90
14061;DHT22;7105;43.616;1.434;2023-09-19T10:27:54;23.20;99.90
14061;DHT22;7105;43.616;1.434;2023-09-19T10:30:24;23.20;99.90
14061;DHT22;7105;43.616;1.434;2023-09-19T10:33:01;22.60;99.90
14061;DHT22;7105;43.616;1.434;2023-09-19T10:35:28;22.90;99.90
14061;DHT22;7105;43.616;1.434;2023-09-19T10:38:00;23.00;99.90
14061;DHT22;7105;43.616;1.434;2023-09-19T10:40:27;23.10;99.90
14061;DHT22;7105;43.616;1.434;2023-09-19T10:43:05;23.30;99.90
14061;DHT22;7105;43.616;1.434;2023-09-19T10:45:33;23.30;99.90
14061;DHT22;7105;43.616;1.434;2023-09-19T10:48:00;23.30;99.90
14061;DHT22;7105;43.616;1.434;2023-09-19T10:50:45;24.00;99.90
14061;DHT22;7105;43.616;1.434;2023-09-19T10:53:12;24.10;99.90
14061;DHT22;7105;43.616;1.434;2023-09-19T10:55:39;24.50;99.90
14061;DHT22;7105;43.616;1.434;2023-09-19T10:58:06;24.20;99.90
14061;DHT22;7105;43.616;1.434;2023-09-19T11:00:55;24.20;99.90
14061;DHT22;7105;43.616;1.434;2023-09-19T11:03:21;23.80;99.90
14061;DHT22;7105;43.616;1.434;2023-09-19T11:06:16;24.10;99.90
14061;DHT22;7105;43.616;1.434;2023-09-19T11:11:43;24.20;99.90
14061;DHT22;7105;43.616;1.434;2023-09-19T11:14:29;24.10;99.90
14061;DHT22;7105;43.616;1.434;2023-09-19T11:30:40;23.70;99.90
14061;DHT22;7105;43.616;1.434;2023-09-19T11:46:21;23.70;99.90
14061;DHT22;7105;43.616;1.434;2023-09-19T11:48:51;24.00;99.90
14061;DHT22;7105;43.616;1.434;2023-09-19T11:51:21;23.90;99.90
14061;DHT22;7105;43.616;1.434;2023-09-19T11:54:02;24.00;99.90
14061;DHT22;7105;43.616;1.434;2023-09-19T11:56:29;24.20;99.90
14061;DHT22;7105;43.616;1.434;2023-09-19T11:58:57;24.30;99.90
14061;DHT22;7105;43.616;1.434;2023-09-19T12:01:33;24.20;99.90
14061;DHT22;7105;43.616;1.434;2023-09-19T12:04:02;24.40;99.90
14061;DHT22;7105;43.616;1.434;2023-09-19T12:06:30;24.10;99.90
14061;DHT22;7105;43.616;1.434;2023-09-19T12:08:58;23.90;99.90
14061;DHT22;7105;43.616;1.434;2023-09-19T12:11:31;23.90;99.90
14061;DHT22;7105;43.616;1.434;2023-09-19T12:14:01;23.80;99.90
14061;DHT22;7105;43.616;1.434;2023-09-19T12:16:28;23.70;99.90
14061;DHT22;7105;43.616;1.434;2023-09-19T12:18:57;23.30;99.90
14061;DHT22;7105;43.616;1.434;2023-09-19T12:21:30;23.30;99.90
14061;DHT22;7105;43.616;1.434;2023-09-19T12:24:27;23.60;99.90
14061;DHT22;7105;43.616;1.434;2023-09-19T12:27:00;24.20;99.90
14061;DHT22;7105;43.616;1.434;2023-09-19T12:29:27;23.80;99.90
14061;DHT22;7105;43.616;1.434;2023-09-19T12:31:54;24.00;99.90
14061;DHT22;7105;43.616;1.434;2023-09-19T12:34:30;24.30;99.90
14061;DHT22;7105;43.616;1.434;2023-09-19T12:37:16;24.70;99.90
14061;DHT22;7105;43.616;1.434;2023-09-19T12:39:48;24.90;99.90
14061;DHT22;7105;43.616;1.434;2023-09-19T12:42:16;24.70;99.90
14061;DHT22;7105;43.616;1.434;2023-09-19T12:44:46;24.60;99.90
14061;DHT22;7105;43.616;1.434;2023-09-19T12:47:17;24.70;99.90
14061;DHT22;7105;43.616;1.434;2023-09-19T12:52:41;24.30;99.90
14061;DHT22;7105;43.616;1.434;2023-09-19T12:55:07;24.20;99.90
14061;DHT22;7105;43.616;1.434;2023-09-19T12:57:35;24.50;99.90
14061;DHT22;7105;43.616;1.434;2023-09-19T13:00:02;24.50;99.90
14061;DHT22;7105;43.616;1.434;2023-09-19T13:02:31;24.60;99.90
14061;DHT22;7105;43.616;1.434;2023-09-19T13:04:58;24.30;99.90
14061;DHT22;7105;43.616;1.434;2023-09-19T13:07:44;24.30;99.90
14061;DHT22;7105;43.616;1.434;2023-09-19T13:10:11;24.80;99.90
14061;DHT22;7105;43.616;1.434;2023-09-19T13:12:40;24.60;99.90
14061;DHT22;7105;43.616;1.434;2023-09-19T13:15:11;24.60;99.90
14061;DHT22;7105;43.616;1.434;2023-09-19T13:17:46;24.10;99.90
14061;DHT22;7105;43.616;1.434;2023-09-19T13:20:26;24.40;99.90
14061;DHT22;7105;43.616;1.434;2023-09-19T13:22:57;24.60;99.90
14061;DHT22;7105;43.616;1.434;2023-09-19T13:25:33;24.20;99.90
14061;DHT22;7105;43.616;1.434;2023-09-19T13:28:00;24.20;99.90
14061;DHT22;7105;43.616;1.434;2023-09-19T13:30:29;24.20;99.90
14061;DHT22;7105;43.616;1.434;2023-09-19T13:33:08;24.60;99.90
14061;DHT22;7105;43.616;1.434;2023-09-19T13:35:35;24.80;99.90
14061;DHT22;7105;43.616;1.434;2023-09-19T13:38:04;24.70;99.90
14061;DHT22;7105;43.616;1.434;2023-09-19T13:40:29;24.40;99.90
14061;DHT22;7105;43.616;1.434;2023-09-19T13:42:56;24.50;99.90
14061;DHT22;7105;43.616;1.434;2023-09-19T13:45:22;24.40;99.90
14061;DHT22;7105;43.616;1.434;2023-09-19T13:47:50;24.40;99.90
14061;DHT22;7105;43.616;1.434;2023-09-19T13:50:15;24.60;99.90
14061;DHT22;7105;43.616;1.434;2023-09-19T13:52:44;24.50;99.90
14061;DHT22;7105;43.616;1.434;2023-09-19T13:55:09;24.50;99.90
14061;DHT22;7105;43.616;1.434;2023-09-19T13:57:35;24.70;99.90
14061;DHT22;7105;43.616;1.434;2023-09-19T14:00:01;24.80;99.90
14061;DHT22;7105;43.616;1.434;2023-09-19T14:02:26;24.60;99.90
14061;DHT22;7105;43.616;1.434;2023-09-19T14:04:52;24.60;99.90
14061;DHT22;7105;43.616;1.434;2023-09-19T14:07:18;24.70;99.90
14061;DHT22;7105;43.616;1.434;2023-09-19T14:09:45;24.50;99.90
14061;DHT22;7105;43.616;1.434;2023-09-19T14:12:11;24.80;99.90
14061;DHT22;7105;43.616;1.434;2023-09-19T14:14:37;24.90;99.90
14061;DHT22;7105;43.616;1.434;2023-09-19T14:17:06;24.80;99.90
14061;DHT22;7105;43.616;1.434;2023-09-19T14:19:33;24.60;99.90
14061;DHT22;7105;43.616;1.434;2023-09-19T14:21:58;24.80;99.90
14061;DHT22;7105;43.616;1.434;2023-09-19T14:24:25;24.80;99.90
14061;DHT22;7105;43.616;1.434;2023-09-19T14:26:51;24.80;99.90
14061;DHT22;7105;43.616;1.434;2023-09-19T14:29:17;24.80;99.90
14061;DHT22;7105;43.616;1.434;2023-09-19T14:31:43;24.90;99.90
14061;DHT22;7105;43.616;1.434;2023-09-19T14:34:09;24.90;99.90
14061;DHT22;7105;43.616;1.434;2023-09-19T14:36:38;24.90;99.90
14061;DHT22;7105;43.616;1.434;2023-09-19T14:39:07;24.80;99.90
14061;DHT22;7105;43.616;1.434;2023-09-19T14:41:33;24.80;99.90
14061;DHT22;7105;43.616;1.434;2023-09-19T14:43:59;24.90;99.90
14061;DHT22;7105;43.616;1.434;2023-09-19T14:46:25;24.80;99.90
14061;DHT22;7105;43.616;1.434;2023-09-19T14:48:53;24.70;99.90
14061;DHT22;7105;43.616;1.434;2023-09-19T14:51:19;24.80;99.90
14061;DHT22;7105;43.616;1.434;2023-09-19T14:53:45;24.80;99.90
14061;DHT22;7105;43.616;1.434;2023-09-19T14:56:12;24.90;99.90
14061;DHT22;7105;43.616;1.434;2023-09-19T14:58:41;25.20;99.90
14061;DHT22;7105;43.616;1.434;2023-09-19T15:01:09;25.10;99.90
14061;DHT22;7105;43.616;1.434;2023-09-19T15:03:39;25.00;99.90
14061;DHT22;7105;43.616;1.434;2023-09-19T15:06:09;25.10;99.90
14061;DHT22;7105;43.616;1.434;2023-09-19T15:08:39;25.30;99.90
14061;DHT22;7105;43.616;1.434;2023-09-19T15:11:06;25.20;99.90
14061;DHT22;7105;43.616;1.434;2023-09-19T15:13:33;25.10;99.90
14061;DHT22;7105;43.616;1.434;2023-09-19T15:16:02;25.00;99.90
14061;DHT22;7105;43.616;1.434;2023-09-19T15:18:29;25.00;99.90
14061;DHT22;7105;43.616;1.434;2023-09-19T15:21:02;24.80;99.90
14061;DHT22;7105;43.616;1.434;2023-09-19T15:23:32;25.00;99.90
14061;DHT22;7105;43.616;1.434;2023-09-19T15:26:05;25.00;99.90
14061;DHT22;7105;43.616;1.434;2023-09-19T15:28:31;24.90;99.90
14061;DHT22;7105;43.616;1.434;2023-09-19T15:31:07;24.80;99.90
14061;DHT22;7105;43.616;1.434;2023-09-19T15:33:34;24.90;99.90
14061;DHT22;7105;43.616;1.434;2023-09-19T15:36:05;25.10;99.90
14061;DHT22;7105;43.616;1.434;2023-09-19T15:38:32;25.00;99.90
14061;DHT22;7105;43.616;1.434;2023-09-19T15:41:21;24.80;99.90
14061;DHT22;7105;43.616;1.434;2023-09-19T15:43:47;25.00;99.90
14061;DHT22;7105;43.616;1.434;2023-09-19T15:46:13;25.00;99.90
14061;DHT22;7105;43.616;1.434;2023-09-19T15:48:40;25.00;99.90
14061;DHT22;7105;43.616;1.434;2023-09-19T15:51:06;25.10;99.90
14061;DHT22;7105;43.616;1.434;2023-09-19T15:53:49;25.00;99.90
14061;DHT22;7105;43.616;1.434;2023-09-19T15:56:18;25.00;99.90
14061;DHT22;7105;43.616;1.434;2023-09-19T15:58:47;24.90;99.90
14061;DHT22;7105;43.616;1.434;2023-09-19T16:01:14;25.00;99.90
14061;DHT22;7105;43.616;1.434;2023-09-19T16:03:46;25.00;99.90
14061;DHT22;7105;43.616;1.434;2023-09-19T16:06:20;25.00;99.90
14061;DHT22;7105;43.616;1.434;2023-09-19T16:08:49;25.10;99.90
14061;DHT22;7105;43.616;1.434;2023-09-19T16:11:16;25.10;99.90
14061;DHT22;7105;43.616;1.434;2023-09-19T16:13:42;25.00;99.90
14061;DHT22;7105;43.616;1.434;2023-09-19T16:16:09;25.00;99.90
14061;DHT22;7105;43.616;1.434;2023-09-19T16:18:40;24.90;99.90
14061;DHT22;7105;43.616;1.434;2023-09-19T16:21:06;24.80;99.90
14061;DHT22;7105;43.616;1.434;2023-09-19T16:23:33;24.90;99.90
14061;DHT22;7105;43.616;1.434;2023-09-19T16:26:05;24.80;99.90
14061;DHT22;7105;43.616;1.434;2023-09-19T16:28:31;24.80;99.90
14061;DHT22;7105;43.616;1.434;2023-09-19T16:30:58;24.70;99.90
14061;DHT22;7105;43.616;1.434;2023-09-19T16:33:25;24.70;99.90
14061;DHT22;7105;43.616;1.434;2023-09-19T16:35:52;24.80;99.90
14061;DHT22;7105;43.616;1.434;2023-09-19T16:38:18;24.80;99.90
14061;DHT22;7105;43.616;1.434;2023-09-19T16:40:54;24.80;99.90
14061;DHT22;7105;43.616;1.434;2023-09-19T16:43:21;24.80;99.90
14061;DHT22;7105;43.616;1.434;2023-09-19T16:46:01;24.80;99.90
14061;DHT22;7105;43.616;1.434;2023-09-19T16:48:27;24.70;99.90
14061;DHT22;7105;43.616;1.434;2023-09-19T16:50:58;24.70;99.90